Time;durP1;ratioP1;P1;durP2;ratioP2;P2;SDS_P1;SDS_P2;PMS_P1;PMS_P2;Temp;Humidity;BMP_temperature;BMP_pressure;BME280_temperature;BME280_humidity;BME280_pressure;Samples;Min_cycle;Max_cycle;Signal;HPM_P1;HPM_P2
2020/12/06 00:00:49;;;;;;;68.95;38.38;;;2.90;99.90;;;;;;5035384;28;20173;-62
2020/12/06 00:03:15;;;;;;;73.82;38.10;;;2.90;99.90;;;;;;5032616;28;20048;-61
2020/12/06 00:05:41;;;;;;;73.50;39.03;;;2.80;99.90;;;;;;5030025;28;20521;-62
2020/12/06 00:08:07;;;;;;;82.00;41.03;;;2.80;99.90;;;;;;5018891;28;20099;-61
2020/12/06 00:10:33;;;;;;;79.75;40.88;;;2.80;99.90;;;;;;5034040;28;20447;-61
2020/12/06 00:12:58;;;;;;;86.80;43.78;;;2.70;99.90;;;;;;5031947;28;20328;-61
2020/12/06 00:15:24;;;;;;;78.63;42.38;;;2.80;99.90;;;;;;5036679;28;20037;-61
2020/12/06 00:17:50;;;;;;;79.32;41.72;;;2.80;99.90;;;;;;5034604;28;20112;-61
2020/12/06 00:20:16;;;;;;;86.20;43.50;;;2.80;99.90;;;;;;5035241;28;20017;-61
2020/12/06 00:22:44;;;;;;;84.40;41.35;;;2.90;99.90;;;;;;5029736;28;20586;-61
2020/12/06 00:25:09;;;;;;;76.22;41.28;;;2.90;99.90;;;;;;5032923;28;20029;-61
2020/12/06 00:27:36;;;;;;;79.10;40.85;;;2.80;99.90;;;;;;5033968;28;20037;-61
2020/12/06 00:30:06;;;;;;;79.57;41.10;;;2.80;99.90;;;;;;5036393;28;20053;-61
2020/12/06 00:32:32;;;;;;;76.82;40.75;;;2.80;99.90;;;;;;5033909;28;20037;-61
2020/12/06 00:34:57;;;;;;;80.15;41.38;;;2.90;99.90;;;;;;5033476;28;20106;-61
2020/12/06 00:37:23;;;;;;;81.15;41.70;;;2.90;99.90;;;;;;5033875;28;20125;-61
2020/12/06 00:39:49;;;;;;;81.43;42.65;;;2.80;99.90;;;;;;5018160;28;20029;-61
2020/12/06 00:42:15;;;;;;;80.82;41.97;;;2.80;99.90;;;;;;5033277;28;20061;-61
2020/12/06 00:44:40;;;;;;;82.22;42.90;;;2.90;99.90;;;;;;5033529;28;20029;-61
2020/12/06 00:47:06;;;;;;;86.22;43.70;;;2.80;99.90;;;;;;5034538;28;20051;-61
2020/12/06 00:49:32;;;;;;;84.55;43.40;;;2.70;99.90;;;;;;5034221;28;20033;-62
2020/12/06 00:51:58;;;;;;;85.63;43.63;;;2.70;99.90;;;;;;5033637;28;20037;-61
2020/12/06 00:54:24;;;;;;;84.70;41.65;;;2.70;99.90;;;;;;5032650;28;20110;-62
2020/12/06 00:56:57;;;;;;;92.65;46.83;;;2.70;99.90;;;;;;5035526;28;20028;-61
2020/12/06 00:59:24;;;;;;;90.15;44.30;;;2.60;99.90;;;;;;5035982;28;20037;-61
2020/12/06 01:01:50;;;;;;;94.22;46.33;;;2.60;99.90;;;;;;5035305;28;20159;-61
2020/12/06 01:04:16;;;;;;;84.28;44.83;;;2.60;99.90;;;;;;5031673;28;20024;-61
2020/12/06 01:06:42;;;;;;;92.75;46.47;;;2.60;99.90;;;;;;5032565;28;20076;-61
2020/12/06 01:09:08;;;;;;;88.00;44.67;;;2.60;99.90;;;;;;5034468;28;20140;-61
2020/12/06 01:11:34;;;;;;;89.63;45.40;;;2.70;99.90;;;;;;5033046;28;20048;-61
2020/12/06 01:14:00;;;;;;;87.32;46.85;;;2.60;99.90;;;;;;5031479;28;20029;-61
2020/12/06 01:16:26;;;;;;;95.47;46.22;;;2.50;99.90;;;;;;5017288;28;20037;-61
2020/12/06 01:18:51;;;;;;;94.40;46.83;;;2.40;99.90;;;;;;5035674;28;20040;-61
2020/12/06 01:21:17;;;;;;;100.45;47.10;;;2.40;99.90;;;;;;5033922;28;20401;-61
2020/12/06 01:23:43;;;;;;;91.40;45.92;;;2.40;99.90;;;;;;5033752;28;20077;-61
2020/12/06 01:26:12;;;;;;;104.22;49.72;;;2.40;99.90;;;;;;5035088;28;20025;-61
2020/12/06 01:28:39;;;;;;;97.90;46.65;;;2.30;99.90;;;;;;5032950;28;20033;-61
2020/12/06 01:31:08;;;;;;;89.55;44.08;;;2.30;99.90;;;;;;5031760;28;20033;-61
2020/12/06 01:33:34;;;;;;;101.95;47.50;;;2.30;99.90;;;;;;5029203;28;20053;-62
2020/12/06 01:36:00;;;;;;;89.38;44.78;;;2.30;99.90;;;;;;5035118;28;20514;-61
2020/12/06 01:38:26;;;;;;;91.68;44.35;;;2.20;99.90;;;;;;5030303;28;20048;-61
2020/12/06 01:40:52;;;;;;;88.80;45.72;;;2.20;99.90;;;;;;5040047;28;20033;-62
2020/12/06 01:43:17;;;;;;;95.57;47.58;;;2.20;99.90;;;;;;5034830;28;20044;-61
2020/12/06 01:45:43;;;;;;;90.43;44.95;;;2.10;99.90;;;;;;5037389;28;20053;-62
2020/12/06 01:48:09;;;;;;;98.20;47.67;;;2.10;99.90;;;;;;5018514;28;20231;-62
2020/12/06 01:50:39;;;;;;;91.78;46.50;;;2.00;99.90;;;;;;5037382;28;20059;-61
2020/12/06 01:53:07;;;;;;;94.15;45.33;;;2.10;99.90;;;;;;5034692;28;20118;-62
2020/12/06 01:55:33;;;;;;;89.38;47.53;;;2.00;99.90;;;;;;5038001;28;20037;-61
2020/12/06 01:58:09;;;;;;;90.97;44.97;;;2.00;99.90;;;;;;5036859;28;20039;-62
2020/12/06 02:00:35;;;;;;;89.28;44.63;;;2.00;99.90;;;;;;5039686;28;20102;-62
2020/12/06 02:03:03;;;;;;;93.18;46.33;;;2.00;99.90;;;;;;5033108;28;20032;-61
2020/12/06 02:05:30;;;;;;;98.20;47.28;;;2.00;99.90;;;;;;5037013;28;20593;-61
2020/12/06 02:07:59;;;;;;;94.10;47.65;;;1.90;99.90;;;;;;5035981;28;20033;-62
2020/12/06 02:10:30;;;;;;;95.97;45.08;;;2.00;99.90;;;;;;5037990;28;20488;-62
2020/12/06 02:12:56;;;;;;;87.05;44.50;;;2.00;99.90;;;;;;5034408;28;20670;-62
2020/12/06 02:15:23;;;;;;;94.05;46.83;;;2.00;99.90;;;;;;5037697;28;20056;-62
2020/12/06 02:17:49;;;;;;;87.55;43.83;;;1.90;99.90;;;;;;5037916;28;20041;-62
2020/12/06 02:20:16;;;;;;;92.72;45.58;;;1.90;99.90;;;;;;5036005;28;20021;-62
2020/12/06 02:22:42;;;;;;;96.78;48.92;;;2.00;99.90;;;;;;5032334;28;20055;-62
2020/12/06 02:25:07;;;;;;;91.60;45.13;;;1.80;99.90;;;;;;5016780;28;20029;-62
2020/12/06 02:27:33;;;;;;;91.57;47.15;;;1.80;99.90;;;;;;5034543;28;20868;-62
2020/12/06 02:29:59;;;;;;;91.63;46.53;;;1.70;99.90;;;;;;5038733;28;20041;-62
2020/12/06 02:32:25;;;;;;;91.85;44.08;;;1.80;99.90;;;;;;5009716;28;20617;-61
2020/12/06 02:34:51;;;;;;;91.75;44.40;;;1.90;99.90;;;;;;5035647;28;20029;-61
2020/12/06 02:37:16;;;;;;;95.78;45.47;;;2.00;99.90;;;;;;5038713;28;20082;-62
2020/12/06 02:39:43;;;;;;;89.65;45.00;;;1.90;99.90;;;;;;5035806;28;20025;-61
2020/12/06 02:42:09;;;;;;;92.22;44.53;;;1.90;99.90;;;;;;5039166;28;20040;-65
2020/12/06 02:44:34;;;;;;;86.80;43.20;;;1.80;99.90;;;;;;5034814;28;20037;-62
2020/12/06 02:47:00;;;;;;;93.32;46.88;;;1.90;99.90;;;;;;5036207;28;20032;-62
2020/12/06 02:49:27;;;;;;;86.25;43.55;;;1.80;99.90;;;;;;5036743;28;20487;-62
2020/12/06 02:51:53;;;;;;;93.95;46.17;;;1.90;99.90;;;;;;5036073;28;20033;-62
2020/12/06 02:54:19;;;;;;;99.93;47.58;;;1.80;99.90;;;;;;5016885;28;20057;-62
2020/12/06 02:56:45;;;;;;;99.32;46.78;;;1.80;99.90;;;;;;5038495;28;20024;-62
2020/12/06 02:59:11;;;;;;;98.53;46.25;;;1.80;99.90;;;;;;5034731;28;20379;-62
2020/12/06 03:01:36;;;;;;;98.38;47.33;;;1.80;99.90;;;;;;5037233;28;20550;-62
2020/12/06 03:04:02;;;;;;;101.20;46.85;;;1.80;99.90;;;;;;5034817;28;20045;-62
2020/12/06 03:06:28;;;;;;;103.35;48.22;;;1.80;99.90;;;;;;5037666;28;20631;-62
2020/12/06 03:08:54;;;;;;;90.80;45.15;;;1.90;99.90;;;;;;5035152;28;20052;-62
2020/12/06 03:11:25;;;;;;;104.55;47.95;;;2.00;99.90;;;;;;5016197;28;20555;-62
2020/12/06 03:13:51;;;;;;;100.43;47.25;;;1.90;99.90;;;;;;5034661;28;20388;-62
2020/12/06 03:16:17;;;;;;;93.03;45.45;;;1.90;99.90;;;;;;5018221;28;20195;-62
2020/12/06 03:18:43;;;;;;;110.53;52.05;;;1.90;99.90;;;;;;5035921;28;20491;-62
2020/12/06 03:21:09;;;;;;;105.03;49.10;;;2.00;99.90;;;;;;5036818;28;20021;-62
2020/12/06 03:23:35;;;;;;;113.53;51.03;;;2.00;99.90;;;;;;5033430;28;20784;-62
2020/12/06 03:26:01;;;;;;;114.85;52.45;;;2.00;99.90;;;;;;5035965;28;20120;-62
2020/12/06 03:28:26;;;;;;;98.30;47.47;;;1.90;99.90;;;;;;5033708;28;20040;-62
2020/12/06 03:30:52;;;;;;;107.32;48.92;;;2.00;99.90;;;;;;5038912;28;20127;-62
2020/12/06 03:33:18;;;;;;;102.93;49.13;;;2.00;99.90;;;;;;5032369;28;20972;-62
2020/12/06 03:35:44;;;;;;;96.63;45.53;;;2.00;99.90;;;;;;5023863;28;20032;-62
2020/12/06 03:38:10;;;;;;;104.07;48.60;;;2.00;99.90;;;;;;5035051;28;20049;-62
2020/12/06 03:40:36;;;;;;;99.28;48.13;;;2.10;99.90;;;;;;5035983;28;20551;-62
2020/12/06 03:43:02;;;;;;;93.80;44.25;;;2.10;99.90;;;;;;5031873;28;20164;-62
2020/12/06 03:45:28;;;;;;;89.18;44.53;;;2.10;99.90;;;;;;5033342;28;20056;-62
2020/12/06 03:47:57;;;;;;;95.28;44.60;;;2.10;99.90;;;;;;5034546;28;20188;-62
2020/12/06 03:50:23;;;;;;;93.90;44.90;;;2.00;99.90;;;;;;5034503;28;20039;-62
2020/12/06 03:52:49;;;;;;;89.60;45.42;;;2.10;99.90;;;;;;5035692;28;20816;-62
2020/12/06 03:55:15;;;;;;;96.60;45.28;;;2.10;99.90;;;;;;5035154;28;20632;-62
2020/12/06 03:57:41;;;;;;;93.32;46.75;;;2.10;99.90;;;;;;5033796;28;20303;-62
2020/12/06 04:00:07;;;;;;;89.13;44.40;;;2.10;99.90;;;;;;5036051;28;20050;-61
2020/12/06 04:02:33;;;;;;;100.25;46.90;;;2.10;99.90;;;;;;5034450;28;20033;-62
2020/12/06 04:04:59;;;;;;;91.78;46.30;;;2.10;99.90;;;;;;5034448;28;20079;-62
2020/12/06 04:07:25;;;;;;;92.75;46.33;;;2.10;99.90;;;;;;5032489;28;20128;-62
2020/12/06 04:09:51;;;;;;;100.90;48.38;;;2.10;99.90;;;;;;5033860;28;20029;-62
2020/12/06 04:12:17;;;;;;;101.03;46.97;;;2.10;99.90;;;;;;5034523;28;20079;-62
2020/12/06 04:14:42;;;;;;;107.13;48.03;;;2.20;99.90;;;;;;5032652;28;20164;-62
2020/12/06 04:17:08;;;;;;;113.35;47.05;;;2.10;99.90;;;;;;5037481;28;20040;-62
2020/12/06 04:19:34;;;;;;;125.10;50.40;;;2.20;99.90;;;;;;5032605;28;20046;-61
2020/12/06 04:22:05;;;;;;;152.57;49.58;;;2.10;99.90;;;;;;5035329;28;20040;-62
2020/12/06 04:24:34;;;;;;;169.68;54.75;;;2.10;99.90;;;;;;5029807;28;20037;-62
2020/12/06 04:27:00;;;;;;;192.25;54.40;;;2.10;99.90;;;;;;5033313;28;20041;-61
2020/12/06 04:29:26;;;;;;;172.50;54.28;;;2.10;99.90;;;;;;5035086;28;20025;-62
2020/12/06 04:31:52;;;;;;;174.80;52.00;;;2.10;99.90;;;;;;5035763;28;20040;-62
2020/12/06 04:34:18;;;;;;;156.55;52.03;;;2.10;99.90;;;;;;5035280;28;20075;-62
2020/12/06 04:36:44;;;;;;;254.95;59.13;;;2.20;99.90;;;;;;5034818;28;20524;-62
2020/12/06 04:39:10;;;;;;;217.88;57.40;;;2.20;99.90;;;;;;5036363;28;20029;-61
2020/12/06 04:41:36;;;;;;;174.35;52.47;;;2.10;99.90;;;;;;5034203;28;20060;-62
2020/12/06 04:44:02;;;;;;;108.45;47.40;;;2.10;99.90;;;;;;5032538;28;20527;-62
2020/12/06 04:46:34;;;;;;;153.35;50.85;;;2.10;99.90;;;;;;5032565;28;20037;-62
2020/12/06 04:49:21;;;;;;;147.57;50.33;;;2.10;99.90;;;;;;5032716;28;20025;-61
2020/12/06 04:51:53;;;;;;;287.55;63.03;;;2.10;99.90;;;;;;5034807;28;20033;-62
2020/12/06 04:54:20;;;;;;;220.45;54.83;;;2.20;99.90;;;;;;5035893;28;20041;-61
2020/12/06 04:56:50;;;;;;;167.50;50.42;;;2.20;99.90;;;;;;5035401;28;20017;-61
2020/12/06 04:59:19;;;;;;;180.10;55.65;;;2.20;99.90;;;;;;5034253;28;20036;-61
2020/12/06 05:01:48;;;;;;;243.90;59.85;;;2.20;99.90;;;;;;5033195;28;20037;-62
2020/12/06 05:04:15;;;;;;;118.45;44.80;;;2.30;99.90;;;;;;5033227;28;20075;-61
2020/12/06 05:06:43;;;;;;;292.65;61.63;;;2.40;99.90;;;;;;5035207;28;20052;-62
2020/12/06 05:09:12;;;;;;;380.40;70.75;;;2.40;99.90;;;;;;5034754;28;20033;-62
2020/12/06 05:11:40;;;;;;;165.05;46.75;;;2.30;99.90;;;;;;5006891;28;20133;-62
2020/12/06 05:14:06;;;;;;;258.73;58.22;;;2.30;99.90;;;;;;5034517;28;20051;-62
2020/12/06 05:16:36;;;;;;;183.07;48.35;;;2.30;99.90;;;;;;5039123;28;20388;-62
2020/12/06 05:19:04;;;;;;;264.42;59.85;;;2.30;99.90;;;;;;5012336;28;20055;-62
2020/12/06 05:21:41;;;;;;;380.42;70.38;;;2.30;99.90;;;;;;5037971;28;20147;-62
2020/12/06 05:24:07;;;;;;;252.23;57.85;;;2.30;99.90;;;;;;5037738;28;20060;-62
2020/12/06 05:26:34;;;;;;;164.90;50.47;;;2.30;99.90;;;;;;5038266;28;20526;-62
2020/12/06 05:29:02;;;;;;;208.13;55.63;;;2.30;99.90;;;;;;5035805;28;20029;-62
2020/12/06 05:31:28;;;;;;;190.15;51.33;;;2.20;99.90;;;;;;5036665;28;20082;-61
2020/12/06 05:33:54;;;;;;;231.07;55.95;;;2.30;99.90;;;;;;5038549;28;20033;-61
2020/12/06 05:36:20;;;;;;;134.20;50.40;;;2.30;99.90;;;;;;5036745;28;20052;-62
2020/12/06 05:38:46;;;;;;;141.45;50.88;;;2.30;99.90;;;;;;5037697;28;20037;-62
2020/12/06 05:41:12;;;;;;;167.68;51.80;;;2.40;99.90;;;;;;5035318;28;20572;-62
2020/12/06 05:43:38;;;;;;;261.35;62.35;;;2.40;99.90;;;;;;5017628;28;20056;-62
2020/12/06 05:46:12;;;;;;;163.60;52.85;;;2.50;99.90;;;;;;5036498;28;20036;-61
2020/12/06 05:48:39;;;;;;;226.00;59.92;;;2.50;99.90;;;;;;5038233;28;20037;-61
2020/12/06 05:51:06;;;;;;;177.40;57.33;;;2.50;99.90;;;;;;5010809;28;20044;-61
2020/12/06 05:53:33;;;;;;;199.70;59.85;;;2.50;99.90;;;;;;5035836;28;20040;-62
2020/12/06 05:56:13;;;;;;;199.25;61.92;;;2.60;99.90;;;;;;5035521;28;20585;-62
2020/12/06 05:58:44;;;;;;;184.00;60.95;;;2.60;99.90;;;;;;5035949;28;20048;-61
2020/12/06 06:01:15;;;;;;;159.13;60.03;;;2.70;99.90;;;;;;5035705;28;20032;-62
2020/12/06 06:03:43;;;;;;;167.77;59.33;;;2.70;99.90;;;;;;5015277;28;20136;-62
2020/12/06 06:06:19;;;;;;;141.45;52.85;;;2.80;99.90;;;;;;5036148;28;20033;-62
2020/12/06 06:08:48;;;;;;;142.68;54.92;;;2.80;99.90;;;;;;5037932;28;20029;-62
2020/12/06 06:11:18;;;;;;;142.35;53.17;;;2.80;99.90;;;;;;5023287;28;20142;-62
2020/12/06 06:13:52;;;;;;;130.73;52.90;;;2.80;99.90;;;;;;5028057;28;20040;-62
2020/12/06 06:16:22;;;;;;;128.20;51.20;;;2.80;99.90;;;;;;5025705;28;20044;-62
2020/12/06 06:18:49;;;;;;;;;;;2.80;99.90;;;;;;5031863;28;20067;-62
2020/12/06 06:21:27;;;;;;;152.85;52.90;;;2.90;99.90;;;;;;5029356;28;19959;-62
2020/12/06 06:23:54;;;;;;;147.52;53.22;;;2.90;99.90;;;;;;5028155;28;20535;-62
2020/12/06 06:26:23;;;;;;;183.38;59.22;;;2.90;99.90;;;;;;5023579;28;20309;-61
2020/12/06 06:28:52;;;;;;;149.02;57.35;;;2.90;99.90;;;;;;5032816;28;20561;-62
2020/12/06 06:31:21;;;;;;;140.57;53.90;;;2.90;99.90;;;;;;5030238;28;22290;-63
2020/12/06 06:33:48;;;;;;;199.25;61.15;;;2.90;99.90;;;;;;5027731;28;20437;-61
2020/12/06 06:36:14;;;;;;;139.88;52.90;;;2.90;99.90;;;;;;5029561;28;20135;-61
2020/12/06 06:38:43;;;;;;;149.95;55.60;;;2.90;99.90;;;;;;5012386;28;20037;-62
2020/12/06 06:41:11;;;;;;;182.52;56.92;;;3.00;99.90;;;;;;5028943;28;20033;-61
2020/12/06 06:43:42;;;;;;;146.85;52.10;;;3.00;99.90;;;;;;5024784;28;20107;-61
2020/12/06 06:46:16;;;;;;;155.98;53.28;;;3.10;99.90;;;;;;5025599;28;20029;-62
2020/12/06 06:48:50;;;;;;;144.98;53.78;;;3.10;99.90;;;;;;5020712;28;20045;-62
2020/12/06 06:51:20;;;;;;;147.23;51.80;;;3.10;99.90;;;;;;5031850;28;20519;-62
2020/12/06 06:53:47;;;;;;;118.55;49.20;;;3.10;99.90;;;;;;5019196;28;20056;-61
2020/12/06 06:56:18;;;;;;;148.02;52.90;;;3.20;99.90;;;;;;5029676;28;20108;-62
2020/12/06 06:58:49;;;;;;;128.82;49.50;;;3.20;99.90;;;;;;5026773;28;20436;-62
2020/12/06 07:01:23;;;;;;;119.95;48.03;;;3.20;99.90;;;;;;5026898;28;20067;-62
2020/12/06 07:03:53;;;;;;;117.32;48.03;;;3.10;99.90;;;;;;5028435;28;20033;-62
2020/12/06 07:06:41;;;;;;;119.20;46.70;;;3.20;99.90;;;;;;5030023;28;20051;-62
2020/12/06 07:09:06;;;;;;;147.07;51.10;;;3.20;99.90;;;;;;5026932;28;20036;-62
2020/12/06 07:11:34;;;;;;;118.95;47.83;;;3.20;99.90;;;;;;5024580;28;20029;-62
2020/12/06 07:14:01;;;;;;;157.05;52.20;;;3.20;99.90;;;;;;5022925;28;20487;-62
2020/12/06 07:16:27;;;;;;;142.88;50.70;;;3.20;99.90;;;;;;5027173;28;20478;-62
2020/12/06 07:18:52;;;;;;;152.57;48.42;;;3.30;99.90;;;;;;5035652;28;20314;-61
2020/12/06 07:21:18;;;;;;;158.15;50.63;;;3.20;99.90;;;;;;5017788;28;20040;-62
2020/12/06 07:23:45;;;;;;;140.18;48.28;;;3.30;99.90;;;;;;5031920;28;20037;-61
2020/12/06 07:26:11;;;;;;;191.63;53.15;;;3.30;99.90;;;;;;5032715;28;20033;-61
2020/12/06 07:28:37;;;;;;;153.75;48.60;;;3.30;99.90;;;;;;5027663;28;20079;-62
2020/12/06 07:31:02;;;;;;;177.60;53.13;;;3.40;99.90;;;;;;5032136;28;20029;-62
2020/12/06 07:33:28;;;;;;;174.02;50.83;;;3.40;99.90;;;;;;5032035;28;20393;-62
2020/12/06 07:35:54;;;;;;;157.98;48.55;;;3.40;99.90;;;;;;5016723;28;20116;-62
2020/12/06 07:38:20;;;;;;;129.77;47.65;;;3.40;99.90;;;;;;5011355;28;20159;-62
2020/12/06 07:40:46;;;;;;;166.43;50.40;;;3.30;99.90;;;;;;5033724;28;20029;-62
2020/12/06 07:43:13;;;;;;;144.15;49.10;;;3.40;99.90;;;;;;5026820;28;20077;-62
2020/12/06 07:45:39;;;;;;;127.53;48.60;;;3.30;99.90;;;;;;5033576;28;20112;-62
2020/12/06 07:48:06;;;;;;;208.43;51.70;;;3.40;99.90;;;;;;5031387;28;20623;-62
2020/12/06 07:50:32;;;;;;;232.27;54.55;;;3.40;99.90;;;;;;5014813;28;20674;-62
2020/12/06 07:53:02;;;;;;;167.05;48.70;;;3.40;99.90;;;;;;5029657;28;20029;-62
2020/12/06 07:55:28;;;;;;;161.05;48.63;;;3.50;99.90;;;;;;5023534;28;20025;-62
2020/12/06 07:57:57;;;;;;;216.75;53.15;;;3.50;99.90;;;;;;5022553;28;20459;-62
2020/12/06 08:00:30;;;;;;;154.48;47.35;;;3.50;99.90;;;;;;5001563;28;20037;-62
2020/12/06 08:02:59;;;;;;;195.13;52.97;;;3.50;99.90;;;;;;5025437;28;20610;-62
2020/12/06 08:05:37;;;;;;;128.63;47.40;;;3.50;99.90;;;;;;5032449;28;20754;-62
2020/12/06 08:08:06;;;;;;;192.43;49.70;;;3.50;99.90;;;;;;5031849;28;20040;-62
2020/12/06 08:10:35;;;;;;;130.25;47.35;;;3.50;99.90;;;;;;5031446;28;20036;-62
2020/12/06 08:13:01;;;;;;;121.90;44.65;;;3.50;99.90;;;;;;5025618;28;20485;-62
2020/12/06 08:15:30;;;;;;;169.77;50.40;;;3.60;99.90;;;;;;5030355;28;20025;-62
2020/12/06 08:17:56;;;;;;;157.32;48.70;;;3.60;99.90;;;;;;5030762;28;20027;-62
2020/12/06 08:20:24;;;;;;;146.70;45.92;;;3.60;99.90;;;;;;5028824;28;20041;-62
2020/12/06 08:22:58;;;;;;;180.27;47.50;;;3.60;99.90;;;;;;5030293;28;20543;-62
2020/12/06 08:25:46;;;;;;;128.07;44.88;;;3.60;99.90;;;;;;5028220;28;20443;-62
2020/12/06 08:28:19;;;;;;;148.18;46.53;;;3.70;99.90;;;;;;5029201;28;20025;-62
2020/12/06 08:30:45;;;;;;;179.55;50.50;;;3.60;99.90;;;;;;5029849;28;20499;-62
2020/12/06 08:33:11;;;;;;;188.18;53.90;;;3.70;99.90;;;;;;5027980;28;20030;-62
2020/12/06 08:35:42;;;;;;;172.73;51.13;;;3.70;99.90;;;;;;5036397;28;20918;-62
2020/12/06 08:38:18;;;;;;;126.32;48.03;;;3.70;99.90;;;;;;5032521;28;20064;-62
2020/12/06 08:41:11;;;;;;;126.45;49.10;;;3.70;99.90;;;;;;5028776;28;20029;-62
2020/12/06 08:43:48;;;;;;;120.25;47.35;;;3.70;99.90;;;;;;5023923;28;20045;-62
2020/12/06 08:46:17;;;;;;;118.90;48.22;;;3.80;99.90;;;;;;5023453;28;20026;-62
2020/12/06 08:48:44;;;;;;;119.70;49.42;;;3.80;99.90;;;;;;5018593;28;20505;-62
2020/12/06 08:51:33;;;;;;;113.57;47.25;;;3.80;99.90;;;;;;5024154;28;20075;-62
2020/12/06 08:54:07;;;;;;;115.80;50.42;;;3.90;99.90;;;;;;5015053;28;20136;-62
2020/12/06 08:56:37;;;;;;;126.60;54.30;;;3.90;99.90;;;;;;5015032;28;20063;-62
2020/12/06 08:59:13;;;;;;;131.77;54.35;;;3.90;99.90;;;;;;5028054;28;20048;-62
2020/12/06 09:01:58;;;;;;;115.28;52.25;;;3.90;99.90;;;;;;5035483;28;20749;-62
2020/12/06 09:04:23;;;;;;;110.90;51.03;;;3.90;99.90;;;;;;5031883;28;20045;-62
2020/12/06 09:06:50;;;;;;;114.60;52.75;;;3.90;99.90;;;;;;5031886;28;20029;-62
2020/12/06 09:09:16;;;;;;;112.72;50.50;;;4.00;99.90;;;;;;5013751;28;20065;-62
2020/12/06 09:11:42;;;;;;;116.78;52.78;;;4.00;99.90;;;;;;5035063;28;20108;-62
2020/12/06 09:14:08;;;;;;;100.95;48.85;;;4.00;99.90;;;;;;5035904;28;20484;-62
2020/12/06 09:16:34;;;;;;;113.70;50.50;;;4.00;99.90;;;;;;5035632;28;20033;-62
2020/12/06 09:19:01;;;;;;;105.00;51.13;;;4.00;99.90;;;;;;5030950;28;20439;-62
2020/12/06 09:21:28;;;;;;;110.75;52.78;;;4.00;99.90;;;;;;5033434;28;20074;-61
2020/12/06 09:23:54;;;;;;;115.90;53.42;;;4.00;99.90;;;;;;5010640;28;20124;-62
2020/12/06 09:26:19;;;;;;;110.38;51.53;;;4.10;99.90;;;;;;5035555;28;20516;-62
2020/12/06 09:28:45;;;;;;;101.80;48.47;;;4.10;99.90;;;;;;5034391;28;20420;-62
2020/12/06 09:31:11;;;;;;;98.75;47.92;;;4.10;99.90;;;;;;5035435;28;20057;-62
2020/12/06 09:33:37;;;;;;;95.28;47.88;;;4.10;99.90;;;;;;5037444;28;20998;-62
2020/12/06 09:36:03;;;;;;;104.03;48.42;;;4.10;99.90;;;;;;5034522;28;20051;-62
2020/12/06 09:38:29;;;;;;;102.93;46.60;;;4.10;99.90;;;;;;5033587;28;20492;-62
2020/12/06 09:40:56;;;;;;;95.05;42.65;;;4.10;99.90;;;;;;5029676;28;20045;-62
2020/12/06 09:43:22;;;;;;;92.22;45.53;;;4.20;99.90;;;;;;5035873;28;20037;-62
2020/12/06 09:45:48;;;;;;;93.78;44.30;;;4.20;99.90;;;;;;5037206;28;20587;-62
2020/12/06 09:48:14;;;;;;;96.28;45.33;;;4.20;99.90;;;;;;5034634;28;20061;-62
2020/12/06 09:50:40;;;;;;;88.60;43.30;;;4.20;99.90;;;;;;5034330;28;20086;-62
2020/12/06 09:53:06;;;;;;;89.88;41.40;;;4.20;99.90;;;;;;5032527;28;20578;-62
2020/12/06 09:55:32;;;;;;;84.47;42.50;;;4.30;99.90;;;;;;5038349;28;20040;-62
2020/12/06 09:57:58;;;;;;;94.40;44.00;;;4.30;99.90;;;;;;5032742;28;20440;-62
2020/12/06 10:00:24;;;;;;;77.13;39.67;;;4.30;99.90;;;;;;5016936;28;20036;-62
2020/12/06 10:02:50;;;;;;;87.50;43.78;;;4.30;99.90;;;;;;5033010;28;20063;-61
2020/12/06 10:05:16;;;;;;;82.40;40.97;;;4.30;99.90;;;;;;5036221;28;20044;-62
2020/12/06 10:07:41;;;;;;;90.20;46.08;;;4.30;99.90;;;;;;5037019;28;20542;-62
2020/12/06 10:10:08;;;;;;;93.05;47.45;;;4.20;99.90;;;;;;5014618;28;20063;-62
2020/12/06 10:12:35;;;;;;;91.43;46.42;;;4.20;99.90;;;;;;5029848;28;20068;-62
2020/12/06 10:15:03;;;;;;;94.80;47.22;;;4.20;99.90;;;;;;5034246;28;20473;-62
2020/12/06 10:17:29;;;;;;;89.35;44.00;;;4.20;99.90;;;;;;5035513;28;20112;-62
2020/12/06 10:19:55;;;;;;;94.88;43.03;;;4.20;99.90;;;;;;5035169;28;20542;-62
2020/12/06 10:22:21;;;;;;;85.93;43.60;;;4.20;99.90;;;;;;5035564;28;20060;-62
2020/12/06 10:24:47;;;;;;;87.75;42.88;;;4.30;99.90;;;;;;5033553;28;20029;-61
2020/12/06 10:27:13;;;;;;;85.38;42.30;;;4.20;99.90;;;;;;5015151;28;20077;-62
2020/12/06 10:29:39;;;;;;;81.93;39.70;;;4.30;99.90;;;;;;5032902;28;20498;-61
2020/12/06 10:32:04;;;;;;;87.40;41.42;;;4.30;99.90;;;;;;5034062;28;20544;-62
2020/12/06 10:34:31;;;;;;;92.53;43.20;;;4.30;99.90;;;;;;5030800;28;20526;-61
2020/12/06 10:36:58;;;;;;;86.82;42.55;;;4.30;99.90;;;;;;5008731;28;20119;-62
2020/12/06 10:39:26;;;;;;;87.65;42.40;;;4.30;99.90;;;;;;5025055;28;20516;-61
2020/12/06 10:41:56;;;;;;;82.68;42.25;;;4.30;99.90;;;;;;5030410;28;20040;-62
2020/12/06 10:44:23;;;;;;;92.20;43.95;;;4.40;99.90;;;;;;5028967;28;20052;-61
2020/12/06 10:46:50;;;;;;;91.70;42.78;;;4.40;99.90;;;;;;5025262;28;20059;-62
2020/12/06 10:49:16;;;;;;;86.43;44.20;;;4.40;99.90;;;;;;5031742;28;20024;-61
2020/12/06 10:51:43;;;;;;;82.47;44.10;;;4.40;99.90;;;;;;5031297;28;20400;-62
2020/12/06 10:54:10;;;;;;;90.05;45.13;;;4.50;99.90;;;;;;5026440;28;20037;-62
2020/12/06 10:56:40;;;;;;;83.57;41.65;;;4.50;99.90;;;;;;5021524;28;20107;-62
2020/12/06 10:59:07;;;;;;;88.25;43.17;;;4.50;99.90;;;;;;5030555;28;20155;-62
2020/12/06 11:01:34;;;;;;;89.60;43.25;;;4.60;99.90;;;;;;5006513;28;20081;-62
2020/12/06 11:04:02;;;;;;;84.47;41.45;;;4.60;99.90;;;;;;5031274;28;20066;-62
2020/12/06 11:06:29;;;;;;;95.05;46.10;;;4.60;99.90;;;;;;5029505;28;20029;-62
2020/12/06 11:08:55;;;;;;;98.50;48.92;;;4.70;99.90;;;;;;5035387;28;20076;-62
2020/12/06 11:11:22;;;;;;;88.40;44.95;;;4.70;99.90;;;;;;5028891;28;20033;-62
2020/12/06 11:13:49;;;;;;;90.88;46.13;;;4.80;99.90;;;;;;5030110;28;20099;-62
2020/12/06 11:16:17;;;;;;;78.15;42.65;;;4.80;99.90;;;;;;5028082;28;20036;-62
2020/12/06 11:18:43;;;;;;;78.75;42.78;;;4.90;99.90;;;;;;5029392;28;20471;-61
2020/12/06 11:21:09;;;;;;;80.00;41.33;;;4.90;99.90;;;;;;5035658;28;20028;-62
2020/12/06 11:23:35;;;;;;;72.07;39.10;;;4.90;99.90;;;;;;5023837;28;20040;-62
2020/12/06 11:26:01;;;;;;;75.47;39.63;;;4.90;99.90;;;;;;5016568;28;20040;-62
2020/12/06 11:28:27;;;;;;;75.40;37.75;;;4.90;99.90;;;;;;5032221;28;20031;-62
2020/12/06 11:30:52;;;;;;;73.45;39.78;;;4.90;99.90;;;;;;5033578;28;20040;-62
2020/12/06 11:33:18;;;;;;;76.53;40.38;;;4.90;99.90;;;;;;5024748;28;20632;-62
2020/12/06 11:35:45;;;;;;;77.65;40.35;;;4.90;99.90;;;;;;5032801;28;20715;-62
2020/12/06 11:38:11;;;;;;;77.18;39.33;;;4.90;99.90;;;;;;5031123;28;20048;-62
2020/12/06 11:40:37;;;;;;;74.38;38.85;;;4.90;99.90;;;;;;5035008;28;20442;-61
2020/12/06 11:43:03;;;;;;;75.97;41.70;;;4.90;99.90;;;;;;5020282;28;20358;-62
2020/12/06 11:45:29;;;;;;;76.65;40.22;;;4.90;99.90;;;;;;5031819;28;20634;-62
2020/12/06 11:47:55;;;;;;;79.15;39.42;;;4.90;99.90;;;;;;5030120;28;20091;-62
2020/12/06 11:50:20;;;;;;;77.85;39.55;;;4.90;99.90;;;;;;5032999;28;20168;-62
2020/12/06 11:52:46;;;;;;;74.55;39.08;;;4.80;99.90;;;;;;5024145;28;20065;-61
2020/12/06 11:55:12;;;;;;;76.65;38.42;;;4.80;99.90;;;;;;5022928;28;20029;-62
2020/12/06 11:57:38;;;;;;;79.22;39.78;;;4.90;99.90;;;;;;5030219;28;20560;-62
2020/12/06 12:00:08;;;;;;;77.72;38.53;;;4.90;99.90;;;;;;5010229;28;20135;-62
2020/12/06 12:02:34;;;;;;;76.63;39.53;;;4.90;99.90;;;;;;5001160;28;20052;-61
2020/12/06 12:05:00;;;;;;;73.90;38.30;;;4.90;99.90;;;;;;5002124;28;20540;-62
2020/12/06 12:07:26;;;;;;;71.78;38.38;;;4.90;99.90;;;;;;5002127;28;20041;-62
2020/12/06 12:09:52;;;;;;;75.00;37.60;;;5.00;99.90;;;;;;5002599;28;20114;-62
2020/12/06 12:12:18;;;;;;;68.40;36.70;;;5.00;99.90;;;;;;4999606;28;21813;-62
2020/12/06 12:14:44;;;;;;;68.93;37.05;;;5.00;99.90;;;;;;5016459;28;20032;-62
2020/12/06 12:17:10;;;;;;;66.82;37.70;;;5.00;99.90;;;;;;5025534;28;20463;-62
2020/12/06 12:19:36;;;;;;;70.13;38.13;;;5.00;99.90;;;;;;5029385;28;20029;-62
2020/12/06 12:22:02;;;;;;;71.53;38.50;;;5.00;99.90;;;;;;5032557;28;20132;-62
2020/12/06 12:24:28;;;;;;;70.75;38.42;;;5.00;99.90;;;;;;5029813;28;20566;-62
2020/12/06 12:27:00;;;;;;;77.32;37.30;;;5.00;99.90;;;;;;5027290;28;20033;-62
2020/12/06 12:29:27;;;;;;;72.57;37.45;;;4.90;99.90;;;;;;5019779;28;20025;-62
2020/12/06 12:31:53;;;;;;;68.72;36.67;;;5.00;99.90;;;;;;5007666;28;20444;-62
2020/12/06 12:34:19;;;;;;;73.03;37.00;;;5.00;99.90;;;;;;5022804;28;20040;-62